createdAt,value
2023-01-09T00:01:29.963Z,7.30
2023-01-09T00:04:03.407Z,7.30
2023-01-09T00:06:33.700Z,7.30
2023-01-09T00:09:01.020Z,7.20
2023-01-09T00:11:29.037Z,7.20
2023-01-09T00:13:56.019Z,7.20
2023-01-09T00:16:25.363Z,7.20
2023-01-09T00:18:53.392Z,7.20
2023-01-09T00:21:23.480Z,7.20
2023-01-09T00:23:55.144Z,7.20
2023-01-09T00:26:25.361Z,7.20
2023-01-09T00:28:54.192Z,7.20
2023-01-09T00:31:23.710Z,7.20
2023-01-09T00:34:00.627Z,7.20
2023-01-09T00:36:30.729Z,7.20
2023-01-09T00:39:00.872Z,7.10
2023-01-09T00:41:45.816Z,7.10
2023-01-09T00:44:36.086Z,7.10
2023-01-09T00:47:22.453Z,7.10
2023-01-09T00:49:51.417Z,7.10
2023-01-09T00:52:19.404Z,7.10
2023-01-09T00:54:48.050Z,7.10
2023-01-09T00:57:17.994Z,7.00
2023-01-09T00:59:46.005Z,7.00
2023-01-09T01:02:12.954Z,7.00
2023-01-09T01:05:01.622Z,7.00
2023-01-09T01:07:41.233Z,7.00
2023-01-09T01:10:16.499Z,7.00
2023-01-09T01:12:48.075Z,7.00
2023-01-09T01:15:18.125Z,7.00
2023-01-09T01:17:48.660Z,7.10
2023-01-09T01:20:18.941Z,7.10
2023-01-09T01:22:46.280Z,7.20
2023-01-09T01:25:17.243Z,7.20
2023-01-09T01:27:46.426Z,7.20
2023-01-09T01:30:15.611Z,7.20
2023-01-09T01:32:48.695Z,7.20
2023-01-09T01:35:18.737Z,7.30
2023-01-09T01:37:49.969Z,7.20
2023-01-09T01:40:20.329Z,7.20
2023-01-09T01:42:49.169Z,7.30
2023-01-09T01:45:20.497Z,7.20
2023-01-09T01:47:57.378Z,7.20
2023-01-09T01:50:44.816Z,7.20
2023-01-09T01:53:32.889Z,7.20
2023-01-09T01:56:06.968Z,7.20
2023-01-09T01:58:46.755Z,7.20
2023-01-09T02:01:16.021Z,7.20
2023-01-09T02:03:44.243Z,7.20
2023-01-09T02:06:12.633Z,7.20
2023-01-09T02:08:39.696Z,7.20
2023-01-09T02:11:07.738Z,7.20
2023-01-09T02:13:38.833Z,7.20
2023-01-09T02:16:41.321Z,7.30
2023-01-09T02:19:26.591Z,7.20
2023-01-09T02:22:30.271Z,7.20
2023-01-09T02:25:34.830Z,7.20
2023-01-09T02:28:38.229Z,7.20
2023-01-09T02:31:22.097Z,7.30
2023-01-09T02:34:33.775Z,7.20
2023-01-09T02:37:31.398Z,7.30
2023-01-09T02:40:35.788Z,7.20
2023-01-09T02:43:05.329Z,7.30
2023-01-09T02:45:32.321Z,7.30
2023-01-09T02:48:01.252Z,7.30
2023-01-09T02:50:39.752Z,7.30
2023-01-09T02:53:46.246Z,7.30
2023-01-09T02:56:31.652Z,7.30
2023-01-09T02:59:36.633Z,7.30
2023-01-09T03:02:13.208Z,7.30
2023-01-09T03:04:41.339Z,7.30
2023-01-09T03:07:11.731Z,7.30
2023-01-09T03:09:41.366Z,7.30
2023-01-09T03:12:18.419Z,7.30
2023-01-09T03:14:50.701Z,7.30
2023-01-09T03:17:30.983Z,7.30
2023-01-09T03:20:02.648Z,7.30
2023-01-09T03:22:32.769Z,7.30
2023-01-09T03:25:01.868Z,7.30
2023-01-09T03:27:28.915Z,7.40
2023-01-09T03:29:56.792Z,7.40
2023-01-09T03:32:23.848Z,7.40
2023-01-09T03:34:50.847Z,7.40
2023-01-09T03:37:17.796Z,7.30
2023-01-09T03:39:45.689Z,7.40
2023-01-09T03:42:14.616Z,7.30
2023-01-09T03:44:42.599Z,7.40
2023-01-09T03:47:11.625Z,7.40
2023-01-09T03:49:39.692Z,7.40
2023-01-09T03:52:07.592Z,7.40
2023-01-09T03:54:34.555Z,7.40
2023-01-09T03:57:02.827Z,7.40
2023-01-09T03:59:32.868Z,7.40
2023-01-09T04:02:03.607Z,7.40
2023-01-09T04:04:34.215Z,7.40
2023-01-09T04:07:02.525Z,7.40
2023-01-09T04:09:29.479Z,7.50
2023-01-09T04:11:58.451Z,7.50
2023-01-09T04:14:27.411Z,7.50
2023-01-09T04:16:57.442Z,7.50
2023-01-09T04:19:24.462Z,7.50
2023-01-09T04:21:53.369Z,7.50
2023-01-09T04:24:20.311Z,7.50
2023-01-09T04:26:50.392Z,7.50
2023-01-09T04:29:18.362Z,7.60
2023-01-09T04:31:48.447Z,7.60
2023-01-09T04:34:15.361Z,7.60
2023-01-09T04:36:44.275Z,7.60
2023-01-09T04:39:14.290Z,7.70
2023-01-09T04:41:50.083Z,7.70
2023-01-09T04:44:21.561Z,7.70
2023-01-09T04:46:51.890Z,7.70
2023-01-09T04:49:18.912Z,7.70
2023-01-09T04:51:49.232Z,7.80
2023-01-09T04:54:25.336Z,7.80
2023-01-09T04:56:53.333Z,7.90
2023-01-09T04:59:22.420Z,7.90
2023-01-09T05:01:54.809Z,7.90
2023-01-09T05:04:25.487Z,8.00
2023-01-09T05:06:52.472Z,8.00
2023-01-09T05:09:19.600Z,8.10
2023-01-09T05:11:49.028Z,8.10
2023-01-09T05:14:19.206Z,8.10
2023-01-09T05:16:48.459Z,8.20
2023-01-09T05:19:18.609Z,8.20
2023-01-09T05:21:48.697Z,8.30
2023-01-09T05:24:18.921Z,8.30
2023-01-09T05:26:48.108Z,8.30
2023-01-09T05:29:16.105Z,8.30
2023-01-09T05:31:44.065Z,8.30
2023-01-09T05:34:12.133Z,8.30
2023-01-09T05:36:42.199Z,8.30
2023-01-09T05:39:12.292Z,8.40
2023-01-09T05:41:42.220Z,8.40
2023-01-09T05:44:09.222Z,8.40
2023-01-09T05:46:38.284Z,8.40
2023-01-09T05:49:07.290Z,8.40
2023-01-09T05:51:40.298Z,8.40
2023-01-09T05:54:10.523Z,8.40
2023-01-09T05:56:40.594Z,8.40
2023-01-09T05:59:07.623Z,8.30
2023-01-09T06:01:35.555Z,8.40
2023-01-09T06:04:04.964Z,8.40
2023-01-09T06:06:31.983Z,8.40
2023-01-09T06:08:58.912Z,8.40
2023-01-09T06:11:27.898Z,8.40
2023-01-09T06:13:54.816Z,8.40
2023-01-09T06:16:22.034Z,8.40
2023-01-09T06:18:51.215Z,8.40
2023-01-09T06:21:18.193Z,8.40
2023-01-09T06:23:48.218Z,8.40
2023-01-09T06:26:18.292Z,8.40
2023-01-09T06:28:47.332Z,8.50
2023-01-09T06:31:14.336Z,8.50
2023-01-09T06:33:44.384Z,8.50
2023-01-09T06:36:14.924Z,8.50
2023-01-09T06:38:44.947Z,8.50
2023-01-09T06:41:11.916Z,8.50
2023-01-09T06:43:44.852Z,8.50
2023-01-09T06:46:14.877Z,8.50
2023-01-09T06:48:41.855Z,8.50
2023-01-09T06:51:11.936Z,8.50
2023-01-09T06:53:39.181Z,8.40
2023-01-09T06:56:08.205Z,8.40
2023-01-09T06:58:35.208Z,8.40
2023-01-09T07:01:03.447Z,8.40
2023-01-09T07:03:33.925Z,8.30
2023-01-09T07:06:01.942Z,8.30
2023-01-09T07:08:32.028Z,8.30
2023-01-09T07:11:02.024Z,8.30
2023-01-09T07:13:32.021Z,8.30
2023-01-09T07:16:03.432Z,8.20
2023-01-09T07:18:32.725Z,8.20
2023-01-09T07:20:59.759Z,8.20
2023-01-09T07:23:29.013Z,8.20
2023-01-09T07:26:00.214Z,8.20
2023-01-09T07:28:30.229Z,8.10
2023-01-09T07:31:04.689Z,8.20
2023-01-09T07:33:35.658Z,8.20
2023-01-09T07:36:05.934Z,8.20
2023-01-09T07:38:33.149Z,8.20
2023-01-09T07:41:00.119Z,8.20
2023-01-09T07:43:30.289Z,8.20
2023-01-09T07:45:58.346Z,8.30
2023-01-09T07:48:28.427Z,8.20
2023-01-09T07:50:57.376Z,8.30
2023-01-09T07:53:26.322Z,8.30
2023-01-09T07:55:53.192Z,8.30
2023-01-09T07:58:20.140Z,8.30
2023-01-09T08:00:50.939Z,8.30
2023-01-09T08:03:24.012Z,8.30
2023-01-09T08:05:53.979Z,8.30
2023-01-09T08:08:24.231Z,8.30
2023-01-09T08:10:53.322Z,8.30
2023-01-09T08:13:21.376Z,8.30
2023-01-09T08:15:50.327Z,8.30
2023-01-09T08:18:17.245Z,8.30
2023-01-09T08:20:47.805Z,8.30
2023-01-09T08:23:15.709Z,8.30
2023-01-09T08:25:43.865Z,8.30
2023-01-09T08:28:13.943Z,8.30
2023-01-09T08:30:40.902Z,8.30
2023-01-09T08:33:07.922Z,8.30
2023-01-09T08:35:37.124Z,8.30
2023-01-09T08:38:04.341Z,8.30
2023-01-09T08:40:34.463Z,8.30
2023-01-09T08:43:22.035Z,8.30
2023-01-09T08:46:10.533Z,8.30
2023-01-09T08:48:40.488Z,8.40
2023-01-09T08:51:11.143Z,8.50
2023-01-09T08:53:38.127Z,8.60
2023-01-09T08:56:06.361Z,8.70
2023-01-09T08:58:36.522Z,8.70
2023-01-09T09:01:06.786Z,8.80
2023-01-09T09:03:35.778Z,8.90
2023-01-09T09:06:09.279Z,8.90
2023-01-09T09:08:39.362Z,8.90
2023-01-09T09:11:07.307Z,9.00
2023-01-09T09:13:36.241Z,9.10
2023-01-09T09:16:05.537Z,9.10
2023-01-09T09:18:33.485Z,9.00
2023-01-09T09:21:00.491Z,8.90
2023-01-09T09:23:30.526Z,8.90
2023-01-09T09:25:57.528Z,8.90
2023-01-09T09:28:27.671Z,8.90
2023-01-09T09:30:55.632Z,9.00
2023-01-09T09:33:25.934Z,9.10
2023-01-09T09:35:58.158Z,9.30
2023-01-09T09:38:28.469Z,9.40
2023-01-09T09:41:30.685Z,9.50
2023-01-09T09:44:53.311Z,9.40
2023-01-09T09:47:51.959Z,9.40
2023-01-09T09:50:37.643Z,9.50
2023-01-09T09:53:12.606Z,9.50
2023-01-09T09:55:42.352Z,9.50
2023-01-09T09:58:21.811Z,9.40
2023-01-09T10:00:56.225Z,9.40
2023-01-09T10:03:39.306Z,9.40
2023-01-09T10:06:30.715Z,9.30
2023-01-09T10:09:25.560Z,9.30
2023-01-09T10:11:59.957Z,9.40
2023-01-09T10:14:27.925Z,9.40
2023-01-09T10:17:27.491Z,9.40
2023-01-09T10:19:55.334Z,9.40
2023-01-09T10:22:25.280Z,9.40
2023-01-09T10:25:04.185Z,9.40
2023-01-09T10:27:58.033Z,9.30
2023-01-09T10:31:02.488Z,9.30
2023-01-09T10:34:07.084Z,9.30
2023-01-09T10:37:12.364Z,9.30
2023-01-09T10:40:02.768Z,9.30
2023-01-09T10:42:36.638Z,9.30
2023-01-09T10:45:24.829Z,9.40
2023-01-09T10:48:01.569Z,9.40
2023-01-09T10:50:34.167Z,9.50
2023-01-09T10:53:05.563Z,9.50
2023-01-09T10:55:51.716Z,9.50
2023-01-09T10:58:22.624Z,9.50
2023-01-09T11:00:51.552Z,9.50
2023-01-09T11:03:28.154Z,9.50
2023-01-09T11:05:58.430Z,9.60
2023-01-09T11:08:41.994Z,9.80
2023-01-09T11:11:10.341Z,9.90
2023-01-09T11:13:46.941Z,10.00
2023-01-09T11:16:21.211Z,9.90
2023-01-09T11:18:55.806Z,9.90
2023-01-09T11:21:39.312Z,10.00
2023-01-09T11:24:28.893Z,9.90
2023-01-09T11:27:14.203Z,9.90
2023-01-09T11:30:04.151Z,9.90
2023-01-09T11:32:34.317Z,10.00
2023-01-09T11:35:05.860Z,10.10
2023-01-09T11:37:34.629Z,10.10
2023-01-09T11:40:02.654Z,10.10
2023-01-09T11:42:49.276Z,10.00
2023-01-09T11:45:33.835Z,10.00
2023-01-09T11:48:28.786Z,10.00
2023-01-09T11:51:00.033Z,10.00
2023-01-09T11:53:28.747Z,9.90
2023-01-09T11:56:03.367Z,10.00
2023-01-09T11:58:35.224Z,10.10
2023-01-09T12:01:47.391Z,10.10
2023-01-09T12:04:34.004Z,10.10
2023-01-09T12:07:28.349Z,10.20
2023-01-09T12:10:32.688Z,10.20
2023-01-09T12:13:22.443Z,10.40
2023-01-09T12:16:15.694Z,10.30
2023-01-09T12:18:51.900Z,10.30
2023-01-09T12:21:36.188Z,10.30
2023-01-09T12:24:44.621Z,10.30
2023-01-09T12:27:48.758Z,10.40
2023-01-09T12:30:27.651Z,10.30
2023-01-09T12:33:06.135Z,10.40
2023-01-09T12:35:43.976Z,10.40
2023-01-09T12:38:31.924Z,10.40
2023-01-09T12:41:23.298Z,10.40
2023-01-09T12:44:30.762Z,10.30
2023-01-09T12:47:22.728Z,10.30
2023-01-09T12:50:01.203Z,10.30
2023-01-09T12:52:36.294Z,10.40
2023-01-09T12:55:23.341Z,10.30
2023-01-09T12:58:01.255Z,10.30
2023-01-09T13:00:37.828Z,10.10
2023-01-09T13:03:12.986Z,10.00
2023-01-09T13:05:51.520Z,10.00
2023-01-09T13:09:03.654Z,9.90
2023-01-09T13:11:41.556Z,9.90
2023-01-09T13:14:23.555Z,9.90
2023-01-09T13:16:56.311Z,9.90
2023-01-09T13:19:39.687Z,9.90
2023-01-09T13:22:07.998Z,10.00
2023-01-09T13:25:25.234Z,9.90
2023-01-09T13:27:58.772Z,9.90
2023-01-09T13:30:45.332Z,9.80
2023-01-09T13:33:39.575Z,9.80
2023-01-09T13:36:06.807Z,9.70
2023-01-09T13:38:38.187Z,9.70
2023-01-09T13:41:35.219Z,9.70
2023-01-09T13:44:19.776Z,9.70
2023-01-09T13:46:55.712Z,9.70
2023-01-09T13:49:47.348Z,9.60
2023-01-09T13:52:30.543Z,9.60
2023-01-09T13:54:58.786Z,9.60
2023-01-09T13:57:32.072Z,9.60
2023-01-09T14:00:19.986Z,9.70
2023-01-09T14:02:49.039Z,9.70
2023-01-09T14:05:24.956Z,9.70
2023-01-09T14:08:13.458Z,9.70
2023-01-09T14:11:00.273Z,9.50
2023-01-09T14:13:32.879Z,9.40
2023-01-09T14:16:11.073Z,9.40
2023-01-09T14:18:48.979Z,9.40
2023-01-09T14:21:16.527Z,9.50
2023-01-09T14:24:07.242Z,9.50
2023-01-09T14:26:57.273Z,9.50
2023-01-09T14:29:44.644Z,9.60
2023-01-09T14:32:33.888Z,9.60
2023-01-09T14:35:10.760Z,9.50
2023-01-09T14:37:40.889Z,9.40
2023-01-09T14:40:22.324Z,9.20
2023-01-09T14:42:53.187Z,9.20
2023-01-09T14:45:27.192Z,9.20
2023-01-09T14:48:07.173Z,9.20
2023-01-09T14:50:44.913Z,9.20
2023-01-09T14:53:20.491Z,9.20
2023-01-09T14:56:06.028Z,9.20
2023-01-09T14:58:37.115Z,9.20
2023-01-09T15:01:23.065Z,9.20
2023-01-09T15:04:01.747Z,9.20
2023-01-09T15:06:32.240Z,9.30
2023-01-09T15:09:09.231Z,9.20
2023-01-09T15:11:40.378Z,9.20
2023-01-09T15:14:10.324Z,9.20
2023-01-09T15:16:39.623Z,9.20
2023-01-09T15:19:08.884Z,9.20
2023-01-09T15:21:38.932Z,9.20
2023-01-09T15:24:21.895Z,9.20
2023-01-09T15:26:53.557Z,9.20
2023-01-09T15:29:20.667Z,9.20
2023-01-09T15:31:53.484Z,9.30
2023-01-09T15:34:24.554Z,9.30
2023-01-09T15:36:55.239Z,9.20
2023-01-09T15:39:31.499Z,9.30
2023-01-09T15:42:23.529Z,9.30
2023-01-09T15:44:58.554Z,9.30
2023-01-09T15:47:27.975Z,9.30
2023-01-09T15:49:56.689Z,9.30
2023-01-09T15:52:24.278Z,9.30
2023-01-09T15:54:54.343Z,9.30
2023-01-09T15:57:27.458Z,9.30
2023-01-09T15:59:57.383Z,9.30
2023-01-09T16:02:44.583Z,9.20
2023-01-09T16:05:19.246Z,9.20
2023-01-09T16:07:51.843Z,9.20
2023-01-09T16:10:35.745Z,9.20
2023-01-09T16:13:03.325Z,9.20
2023-01-09T16:15:34.852Z,9.20
2023-01-09T16:18:23.229Z,9.20
2023-01-09T16:21:22.259Z,9.20
2023-01-09T16:24:00.850Z,9.20
2023-01-09T16:26:31.377Z,9.20
2023-01-09T16:29:28.663Z,9.20
2023-01-09T16:32:07.096Z,9.20
2023-01-09T16:34:44.303Z,9.20
2023-01-09T16:37:14.235Z,9.20
2023-01-09T16:39:41.277Z,9.20
2023-01-09T16:42:32.908Z,9.20
2023-01-09T16:45:02.865Z,9.20
2023-01-09T16:47:31.844Z,9.20
2023-01-09T16:50:01.882Z,9.20
2023-01-09T16:52:31.011Z,9.10
2023-01-09T16:55:01.096Z,9.10
2023-01-09T16:57:28.179Z,9.10
2023-01-09T17:00:00.315Z,9.10
2023-01-09T17:02:30.500Z,9.00
2023-01-09T17:04:59.309Z,9.00
2023-01-09T17:07:26.366Z,8.90
2023-01-09T17:09:54.598Z,8.80
2023-01-09T17:12:25.652Z,8.80
2023-01-09T17:14:57.647Z,8.70
2023-01-09T17:17:26.818Z,8.80
2023-01-09T17:19:54.803Z,8.80
2023-01-09T17:22:21.908Z,8.80
2023-01-09T17:25:10.413Z,8.80
2023-01-09T17:27:58.741Z,8.80
2023-01-09T17:30:28.740Z,8.80
2023-01-09T17:32:56.827Z,8.80
2023-01-09T17:35:26.826Z,8.80
2023-01-09T17:37:54.815Z,8.80
2023-01-09T17:40:23.324Z,8.80
2023-01-09T17:42:50.275Z,8.80
2023-01-09T17:45:19.197Z,8.80
2023-01-09T17:47:47.212Z,8.80
2023-01-09T17:50:19.976Z,8.80
2023-01-09T17:52:54.108Z,8.80
2023-01-09T17:55:24.236Z,8.80
2023-01-09T17:57:51.523Z,8.90
2023-01-09T18:00:36.861Z,8.80
2023-01-09T18:03:07.943Z,8.90
2023-01-09T18:05:38.072Z,8.80
2023-01-09T18:08:09.173Z,8.80
2023-01-09T18:10:43.969Z,8.80
2023-01-09T18:13:11.908Z,8.80
2023-01-09T18:15:46.190Z,8.90
2023-01-09T18:18:16.381Z,8.90
2023-01-09T18:20:45.599Z,8.90
2023-01-09T18:23:12.903Z,8.90
2023-01-09T18:25:42.485Z,9.00
2023-01-09T18:28:15.955Z,9.00
2023-01-09T18:30:45.305Z,9.00
2023-01-09T18:33:13.421Z,8.90
2023-01-09T18:35:44.189Z,8.90
2023-01-09T18:38:14.361Z,8.90
2023-01-09T18:40:42.355Z,8.90
2023-01-09T18:43:11.594Z,8.90
2023-01-09T18:45:41.799Z,8.90
2023-01-09T18:48:12.096Z,8.90
2023-01-09T18:50:42.164Z,8.90
2023-01-09T18:53:09.221Z,8.90
2023-01-09T18:55:39.454Z,8.90
2023-01-09T18:58:09.476Z,8.90
2023-01-09T19:00:41.405Z,8.90
2023-01-09T19:03:14.183Z,8.90
2023-01-09T19:05:44.213Z,8.90
2023-01-09T19:08:13.367Z,8.90
2023-01-09T19:10:43.436Z,8.90
2023-01-09T19:13:12.406Z,9.00
2023-01-09T19:15:41.422Z,9.00
2023-01-09T19:18:11.405Z,9.00
2023-01-09T19:20:39.433Z,9.00
2023-01-09T19:23:06.357Z,9.00
2023-01-09T19:25:34.345Z,9.00
2023-01-09T19:28:01.291Z,9.00
2023-01-09T19:30:28.305Z,9.00
2023-01-09T19:32:55.239Z,9.00
2023-01-09T19:35:22.136Z,9.00
2023-01-09T19:37:49.049Z,9.00
2023-01-09T19:40:16.087Z,9.00
2023-01-09T19:42:43.063Z,9.00
2023-01-09T19:45:10.394Z,9.00
2023-01-09T19:47:38.388Z,9.10
2023-01-09T19:50:08.357Z,9.00
2023-01-09T19:52:36.069Z,9.00
2023-01-09T19:55:03.418Z,9.00
2023-01-09T19:57:30.355Z,9.00
2023-01-09T19:59:57.310Z,9.00
2023-01-09T20:02:24.220Z,9.00
2023-01-09T20:04:51.193Z,9.00
2023-01-09T20:07:18.168Z,8.90
2023-01-09T20:09:45.112Z,8.90
2023-01-09T20:12:13.024Z,8.90
2023-01-09T20:14:39.929Z,8.90
2023-01-09T20:17:10.231Z,8.90
2023-01-09T20:19:37.190Z,8.90
2023-01-09T20:22:04.146Z,8.90
2023-01-09T20:24:31.111Z,8.90
2023-01-09T20:26:59.014Z,8.90
2023-01-09T20:29:26.053Z,8.90
2023-01-09T20:31:52.934Z,8.90
2023-01-09T20:34:19.950Z,8.90
2023-01-09T20:36:48.024Z,8.90
2023-01-09T20:39:14.999Z,8.90
2023-01-09T20:41:42.988Z,8.90
2023-01-09T20:44:12.341Z,8.90
2023-01-09T20:46:42.012Z,8.90
2023-01-09T20:49:13.136Z,8.90
2023-01-09T20:51:47.721Z,8.90
2023-01-09T20:54:15.770Z,8.80
2023-01-09T20:56:43.828Z,8.80
2023-01-09T20:59:22.449Z,8.80
2023-01-09T21:01:50.763Z,8.70
2023-01-09T21:04:18.407Z,8.70
2023-01-09T21:06:46.046Z,8.60
2023-01-09T21:09:13.975Z,8.60
2023-01-09T21:11:40.913Z,8.60
2023-01-09T21:14:07.825Z,8.60
2023-01-09T21:16:34.899Z,8.50
2023-01-09T21:19:01.998Z,8.50
2023-01-09T21:21:29.586Z,8.50
2023-01-09T21:23:58.977Z,8.60
2023-01-09T21:26:29.111Z,8.60
2023-01-09T21:28:59.038Z,8.60
2023-01-09T21:31:35.745Z,8.60
2023-01-09T21:34:05.053Z,8.60
2023-01-09T21:36:35.432Z,8.60
2023-01-09T21:39:02.664Z,8.60
2023-01-09T21:41:47.970Z,8.50
2023-01-09T21:44:33.362Z,8.50
2023-01-09T21:47:01.851Z,8.50
2023-01-09T21:49:31.352Z,8.50
2023-01-09T21:51:59.388Z,8.50
2023-01-09T21:54:26.648Z,8.40
2023-01-09T21:56:54.652Z,8.40
2023-01-09T21:59:23.057Z,8.40
2023-01-09T22:01:50.846Z,8.40
2023-01-09T22:04:21.534Z,8.40
2023-01-09T22:06:48.610Z,8.40
2023-01-09T22:09:16.588Z,8.50
2023-01-09T22:11:44.186Z,8.50
2023-01-09T22:14:16.700Z,8.50
2023-01-09T22:16:45.333Z,8.60
2023-01-09T22:19:14.774Z,8.60
2023-01-09T22:21:41.793Z,8.60
2023-01-09T22:24:13.028Z,8.60
2023-01-09T22:26:40.129Z,8.60
2023-01-09T22:29:07.216Z,8.60
2023-01-09T22:31:34.973Z,8.60
2023-01-09T22:34:02.741Z,8.50
2023-01-09T22:36:31.317Z,8.50
2023-01-09T22:39:00.422Z,8.50
2023-01-09T22:41:29.772Z,8.50
2023-01-09T22:43:56.810Z,8.50
2023-01-09T22:46:23.907Z,8.50
2023-01-09T22:48:50.941Z,8.50
2023-01-09T22:51:20.504Z,8.50
2023-01-09T22:53:47.824Z,8.50
2023-01-09T22:56:16.693Z,8.50
2023-01-09T22:58:49.942Z,8.50
2023-01-09T23:01:16.909Z,8.50
2023-01-09T23:03:43.808Z,8.50
2023-01-09T23:06:14.101Z,8.60
2023-01-09T23:08:41.407Z,8.50
2023-01-09T23:11:12.085Z,8.50
2023-01-09T23:13:39.404Z,8.50
2023-01-09T23:16:07.322Z,8.60
2023-01-09T23:18:35.011Z,8.60
2023-01-09T23:21:04.680Z,8.60
2023-01-09T23:23:33.338Z,8.60
2023-01-09T23:26:09.328Z,8.60
2023-01-09T23:28:36.202Z,8.60
2023-01-09T23:31:03.207Z,8.60
2023-01-09T23:33:30.095Z,8.60
2023-01-09T23:35:56.961Z,8.60
2023-01-09T23:38:23.906Z,8.50
2023-01-09T23:40:57.337Z,8.50
2023-01-09T23:43:24.511Z,8.50
2023-01-09T23:45:52.272Z,8.50
2023-01-09T23:48:19.545Z,8.50
2023-01-09T23:50:51.413Z,8.60
2023-01-09T23:53:19.804Z,8.60
2023-01-09T23:55:46.790Z,8.60
2023-01-09T23:58:13.751Z,8.60
